Airport details for: LOWW (Austria)

Metar

LOWW 250920Z 36007KT 9999 FEW026 SCT200 09/03 Q1028 NOSIG

General details

ICAO: LOWW
IATA: VIE
Name (city): Schwechat
Major:
Country: Austria
vACC: vACC Austria
Description:

http://www.vacc-austria.org/airports/LOWW

Scenery links:
FS9 scenery: Download
FSX/P3D scenery: Download
XP scenery: Download
Elevation: 600 ft.
Transition altitude: 5000 ft.
MSA: 11800 ft.
Latitude: 48.110278
Longitude: 16.569722
LOWW Charts
LOWW Notams
LOWW Online stations

Runways

Number Course Length Elevation Lat Lon ILS ILS freq ILS FAC GP
11 112° 11483ft / 3500 m 575ft 48.122814 16.533358 110.3 112° 3.1°
16 161° 11811ft / 3600 m 597ft 48.119783 16.578167 108.5 161° 3.0°
29 292° 11483ft / 3500 m 600ft 48.109047 16.575631 109.55 292° 3.0°
34 341° 11811ft / 3600 m 586ft 48.088631 16.591339 108.1 341° 3.0°